Time;durP1;ratioP1;P1;durP2;ratioP2;P2;SDS_P1;SDS_P2;PMS_P1;PMS_P2;Temp;Humidity;BMP_temperature;BMP_pressure;BME280_temperature;BME280_humidity;BME280_pressure;Samples;Min_cycle;Max_cycle;Signal;HPM_P1;HPM_P2
2023/10/08 00:01:21;;;;;;;4.03;2.10;;;;;;;;;;5106924;28;20035;-45
2023/10/08 00:03:53;;;;;;;2.45;1.92;;;;;;;;;;5106335;28;20236;-37
2023/10/08 00:06:20;;;;;;;3.38;2.10;;;;;;;;;;5106034;28;20058;-39
2023/10/08 00:08:47;;;;;;;4.10;2.22;;;;;;;;;;5106186;28;20063;-37
2023/10/08 00:11:15;;;;;;;4.65;2.30;;;;;;;;;;5106597;28;20027;-45
2023/10/08 00:13:43;;;;;;;8.02;3.83;;;;;;;;;;5099519;28;20083;-35
2023/10/08 00:16:11;;;;;;;5.25;3.13;;;;;;;;;;5104468;28;20320;-37
2023/10/08 00:18:41;;;;;;;5.03;2.97;;;;;;;;;;5104240;28;20035;-38
2023/10/08 00:23:52;;;;;;;7.70;3.80;;;;;;;;;;5087976;28;20100;-41
2023/10/08 00:26:27;;;;;;;9.48;5.57;;;;;;;;;;5094951;28;20028;-40
2023/10/08 00:28:59;;;;;;;9.80;6.15;;;;;;;;;;5084847;28;20077;-51
2023/10/08 00:31:30;;;;;;;9.32;6.25;;;;;;;;;;5096250;28;20024;-37
2023/10/08 00:33:57;;;;;;;10.93;5.77;;;;;;;;;;5091151;28;20035;-47
2023/10/08 00:36:24;;;;;;;10.13;4.38;;;;;;;;;;5104161;28;20031;-43
2023/10/08 00:38:55;;;;;;;7.13;4.30;;;;;;;;;;5105813;28;20027;-42
2023/10/08 00:41:22;;;;;;;7.07;3.45;;;;;;;;;;5106222;28;20036;-46
2023/10/08 00:43:50;;;;;;;5.68;2.63;;;;;;;;;;5105703;28;20264;-36
2023/10/08 00:48:48;;;;;;;9.88;4.22;;;;;;;;;;5092664;28;20131;-43
2023/10/08 00:53:46;;;;;;;10.18;4.72;;;;;;;;;;5105574;28;20066;-37
2023/10/08 00:56:18;;;;;;;9.60;3.90;;;;;;;;;;5104828;28;20028;-42
2023/10/08 00:58:51;;;;;;;12.75;4.03;;;;;;;;;;5104306;28;20284;-51
2023/10/08 01:01:20;;;;;;;12.32;3.92;;;;;;;;;;5104113;28;20031;-46
2023/10/08 01:03:47;;;;;;;14.32;3.95;;;;;;;;;;5096954;28;20032;-35
2023/10/08 01:06:17;;;;;;;8.98;3.15;;;;;;;;;;5098558;28;20216;-54
2023/10/08 01:08:52;;;;;;;14.93;3.63;;;;;;;;;;5090726;28;20033;-43
2023/10/08 01:11:33;;;;;;;7.55;3.70;;;;;;;;;;5097016;28;20025;-40
2023/10/08 01:14:00;;;;;;;9.52;4.05;;;;;;;;;;5094560;28;20024;-52
2023/10/08 01:16:27;;;;;;;6.43;4.15;;;;;;;;;;5095582;28;20032;-40
2023/10/08 01:18:54;;;;;;;7.90;4.28;;;;;;;;;;5094647;28;20035;-44
2023/10/08 01:21:39;;;;;;;7.43;4.60;;;;;;;;;;5105399;28;20031;-42
2023/10/08 01:24:07;;;;;;;13.35;5.32;;;;;;;;;;5104609;28;20032;-43
2023/10/08 01:26:39;;;;;;;10.35;5.32;;;;;;;;;;5104599;27;20024;-47
2023/10/08 01:29:09;;;;;;;11.02;6.68;;;;;;;;;;5098775;28;20040;-41
2023/10/08 01:31:36;;;;;;;15.82;6.65;;;;;;;;;;5101053;28;20054;-45
2023/10/08 01:34:04;;;;;;;14.52;6.85;;;;;;;;;;5101355;28;20220;-43
2023/10/08 01:36:31;;;;;;;24.67;8.20;;;;;;;;;;5089394;28;20108;-39
2023/10/08 01:38:58;;;;;;;20.42;6.22;;;;;;;;;;5086648;28;20277;-42
2023/10/08 01:41:30;;;;;;;13.95;5.85;;;;;;;;;;5105226;28;20137;-47
2023/10/08 01:43:58;;;;;;;13.48;5.20;;;;;;;;;;5095857;28;20064;-45
2023/10/08 01:46:27;;;;;;;11.75;5.07;;;;;;;;;;5105115;28;20047;-43
2023/10/08 01:49:03;;;;;;;16.42;5.20;;;;;;;;;;5104429;28;20098;-50
2023/10/08 01:51:38;;;;;;;11.65;6.72;;;;;;;;;;5104274;28;20016;-47
2023/10/08 01:54:11;;;;;;;12.48;6.60;;;;;;;;;;5091642;28;20035;-40
2023/10/08 01:56:42;;;;;;;10.95;6.85;;;;;;;;;;5092257;28;20028;-45
2023/10/08 01:59:09;;;;;;;14.15;7.03;;;;;;;;;;5104320;28;20242;-56
2023/10/08 02:01:38;;;;;;;24.17;7.25;;;;;;;;;;5103719;28;20245;-48
2023/10/08 02:04:07;;;;;;;13.93;4.97;;;;;;;;;;5104256;28;20324;-50
2023/10/08 02:06:34;;;;;;;11.70;6.50;;;;;;;;;;5103976;28;20056;-48
2023/10/08 02:09:07;;;;;;;14.07;5.75;;;;;;;;;;5104000;28;20028;-50
2023/10/08 02:11:44;;;;;;;7.43;4.07;;;;;;;;;;5101442;28;20020;-53
2023/10/08 02:14:12;;;;;;;6.70;3.30;;;;;;;;;;5092334;28;20410;-44
2023/10/08 02:16:40;;;;;;;5.40;3.30;;;;;;;;;;5093662;28;20036;-46
2023/10/08 02:19:06;;;;;;;7.38;3.50;;;;;;;;;;5104052;28;20039;-48
2023/10/08 02:21:33;;;;;;;6.75;3.97;;;;;;;;;;5104425;28;20036;-49
2023/10/08 02:24:00;;;;;;;6.78;3.70;;;;;;;;;;5104157;28;20320;-41
2023/10/08 02:26:26;;;;;;;5.60;3.35;;;;;;;;;;5104468;28;20039;-41
2023/10/08 02:28:53;;;;;;;5.10;3.30;;;;;;;;;;5103862;28;20032;-42
2023/10/08 02:31:20;;;;;;;7.43;4.03;;;;;;;;;;5092280;28;20096;-41
2023/10/08 02:33:47;;;;;;;4.22;3.47;;;;;;;;;;5102346;28;20324;-42
2023/10/08 02:36:13;;;;;;;5.38;3.88;;;;;;;;;;5103872;28;20028;-43
2023/10/08 02:38:40;;;;;;;6.50;3.70;;;;;;;;;;5103793;28;20105;-50
2023/10/08 02:41:07;;;;;;;7.75;4.10;;;;;;;;;;5104262;28;20264;-43
2023/10/08 02:43:37;;;;;;;5.70;3.78;;;;;;;;;;5103821;28;20055;-45
2023/10/08 02:46:06;;;;;;;7.75;4.25;;;;;;;;;;5103158;28;20035;-47
2023/10/08 02:48:35;;;;;;;8.48;4.85;;;;;;;;;;5097832;28;20263;-45
2023/10/08 02:51:07;;;;;;;8.88;4.22;;;;;;;;;;5087907;28;20297;-46
2023/10/08 02:53:35;;;;;;;7.55;4.53;;;;;;;;;;5105303;28;20038;-36
2023/10/08 02:56:12;;;;;;;9.50;4.60;;;;;;;;;;5108148;28;20028;-42
2023/10/08 02:58:40;;;;;;;13.43;5.97;;;;;;;;;;5106257;28;20028;-51
2023/10/08 03:01:12;;;;;;;12.40;8.93;;;;;;;;;;5106279;28;20092;-40
2023/10/08 03:03:42;;;;;;;14.50;9.70;;;;;;;;;;5105953;28;20024;-42
2023/10/08 03:06:11;;;;;;;16.63;9.57;;;;;;;;;;5105787;28;20336;-38
2023/10/08 03:08:41;;;;;;;13.98;10.10;;;;;;;;;;5105909;28;20039;-40
2023/10/08 03:11:16;;;;;;;12.02;9.30;;;;;;;;;;5106262;28;20044;-45
2023/10/08 03:13:46;;;;;;;17.05;8.30;;;;;;;;;;5105768;28;20172;-41
2023/10/08 03:16:13;;;;;;;15.38;8.40;;;;;;;;;;5105988;28;20020;-45
2023/10/08 03:18:49;;;;;;;14.90;7.57;;;;;;;;;;5105765;28;20320;-47
2023/10/08 03:21:43;;;;;;;10.23;6.55;;;;;;;;;;5106290;28;20039;-47
2023/10/08 03:24:41;;;;;;;;;;;;;;;;;;5106137;28;20115;-43
2023/10/08 03:27:13;;;;;;;16.05;11.20;;;;;;;;;;5103566;28;19915;-42
2023/10/08 03:29:42;;;;;;;16.65;11.90;;;;;;;;;;5106964;28;20043;-37
2023/10/08 03:32:16;;;;;;;15.80;11.23;;;;;;;;;;5106960;28;20016;-45
2023/10/08 03:34:49;;;;;;;16.20;11.50;;;;;;;;;;5106299;28;20347;-41
2023/10/08 03:37:30;;;;;;;16.77;11.73;;;;;;;;;;5106824;28;20043;-43
2023/10/08 03:42:49;;;;;;;14.30;10.50;;;;;;;;;;5106743;28;20489;-43
2023/10/08 03:45:22;;;;;;;20.13;9.50;;;;;;;;;;5106669;28;20100;-46
2023/10/08 03:48:05;;;;;;;15.00;8.70;;;;;;;;;;5105532;28;20016;-45
2023/10/08 03:50:56;;;;;;;9.27;6.50;;;;;;;;;;5106995;28;20023;-46
2023/10/08 03:53:22;;;;;;;11.70;6.40;;;;;;;;;;5106438;28;20265;-43
2023/10/08 03:55:52;;;;;;;8.05;5.63;;;;;;;;;;5106467;28;20070;-37
2023/10/08 03:58:29;;;;;;;9.07;5.57;;;;;;;;;;5106559;28;20224;-40
2023/10/08 04:01:08;;;;;;;6.57;5.25;;;;;;;;;;5106090;28;20020;-45
2023/10/08 04:06:22;;;;;;;9.70;4.97;;;;;;;;;;5106280;28;20093;-45
2023/10/08 04:09:11;;;;;;;6.95;4.13;;;;;;;;;;5106234;28;20085;-45
2023/10/08 04:14:16;;;;;;;5.72;4.55;;;;;;;;;;5106071;28;20051;-49
2023/10/08 04:16:43;;;;;;;6.53;3.95;;;;;;;;;;5105041;28;20051;-46
2023/10/08 04:19:11;;;;;;;9.27;3.90;;;;;;;;;;5106008;28;20035;-38
2023/10/08 04:21:41;;;;;;;5.45;3.80;;;;;;;;;;5106075;28;20035;-43
2023/10/08 04:24:09;;;;;;;7.03;3.83;;;;;;;;;;5106146;28;20020;-46
2023/10/08 04:26:39;;;;;;;5.95;3.92;;;;;;;;;;5105962;28;20028;-46
2023/10/08 04:29:08;;;;;;;5.22;3.75;;;;;;;;;;5105741;28;20023;-40
2023/10/08 04:32:24;;;;;;;5.65;3.65;;;;;;;;;;5105986;28;20047;-49
2023/10/08 04:34:26;;;;;;;9.00;4.13;;;;;;;;;;5099958;28;20103;-49
2023/10/08 04:37:00;;;;;;;6.38;3.63;;;;;;;;;;5105801;28;20046;-49
2023/10/08 04:39:34;;;;;;;6.25;3.50;;;;;;;;;;5105568;28;20050;-48
2023/10/08 04:42:25;;;;;;;6.10;3.65;;;;;;;;;;5105841;28;20133;-38
2023/10/08 04:44:52;;;;;;;6.28;4.05;;;;;;;;;;5105453;28;20044;-41
2023/10/08 04:47:35;;;;;;;7.68;3.85;;;;;;;;;;5105362;28;20031;-42
2023/10/08 04:50:06;;;;;;;6.00;3.53;;;;;;;;;;5105660;28;20361;-48
2023/10/08 04:52:34;;;;;;;4.60;3.70;;;;;;;;;;5104351;28;20273;-41
2023/10/08 04:55:12;;;;;;;6.07;3.45;;;;;;;;;;5105393;28;20052;-38
2023/10/08 04:57:39;;;;;;;5.53;3.42;;;;;;;;;;5105710;28;20031;-43
2023/10/08 05:00:12;;;;;;;4.55;3.42;;;;;;;;;;5105474;28;20038;-40
2023/10/08 05:02:54;;;;;;;7.03;3.55;;;;;;;;;;5105122;28;20019;-38
2023/10/08 05:13:01;;;;;;;5.60;3.58;;;;;;;;;;5105162;28;20012;-47
2023/10/08 05:15:41;;;;;;;5.60;3.70;;;;;;;;;;5104755;28;20220;-40
2023/10/08 05:18:19;;;;;;;5.65;3.25;;;;;;;;;;5105064;28;20077;-47
2023/10/08 05:23:20;;;;;;;8.27;3.13;;;;;;;;;;5104984;28;20024;-40
2023/10/08 05:26:30;;;;;;;6.00;3.50;;;;;;;;;;5105026;28;20035;-40
2023/10/08 05:29:00;;;;;;;7.70;3.72;;;;;;;;;;5102643;28;20197;-40
2023/10/08 05:31:46;;;;;;;8.20;3.63;;;;;;;;;;5105188;28;20046;-49
2023/10/08 05:39:42;;;;;;;9.85;3.55;;;;;;;;;;5104571;28;20027;-41
2023/10/08 05:45:14;;;;;;;5.75;3.78;;;;;;;;;;5104503;28;20129;-45
2023/10/08 05:55:26;;;;;;;5.97;3.88;;;;;;;;;;5104474;28;19963;-44
2023/10/08 05:58:13;;;;;;;9.10;4.10;;;;;;;;;;5104240;28;20028;-49
2023/10/08 06:11:56;;;;;;;6.37;3.60;;;;;;;;;;5104206;28;20212;-42
2023/10/08 06:14:52;;;;;;;7.32;3.90;;;;;;;;;;5103905;28;20282;-47
2023/10/08 06:17:34;;;;;;;7.30;3.80;;;;;;;;;;5104027;28;20020;-42
2023/10/08 06:20:09;;;;;;;6.82;3.60;;;;;;;;;;5104170;28;20024;-43
2023/10/08 06:22:36;;;;;;;9.98;3.65;;;;;;;;;;5104202;28;20246;-39
2023/10/08 06:25:23;;;;;;;6.47;4.10;;;;;;;;;;5103890;28;20128;-42
2023/10/08 06:27:57;;;;;;;9.48;3.80;;;;;;;;;;5103806;28;20065;-36
2023/10/08 06:30:28;;;;;;;7.05;3.95;;;;;;;;;;5104134;28;20032;-36
2023/10/08 06:32:56;;;;;;;7.67;4.13;;;;;;;;;;5103952;28;20027;-42
2023/10/08 06:35:25;;;;;;;7.20;3.90;;;;;;;;;;5102754;28;20511;-40
2023/10/08 06:37:54;;;;;;;9.02;4.20;;;;;;;;;;5104211;28;20020;-38
2023/10/08 06:43:14;;;;;;;6.15;3.60;;;;;;;;;;5103926;28;20052;-36
2023/10/08 06:45:44;;;;;;;8.57;3.90;;;;;;;;;;5104121;28;20024;-46
2023/10/08 06:48:17;;;;;;;10.13;4.22;;;;;;;;;;5103660;28;20028;-46
2023/10/08 06:50:45;;;;;;;6.45;4.18;;;;;;;;;;5102775;28;20012;-45
2023/10/08 06:53:13;;;;;;;8.38;4.13;;;;;;;;;;5103629;28;20066;-36
2023/10/08 06:55:41;;;;;;;7.18;4.30;;;;;;;;;;5103682;28;20016;-41
2023/10/08 06:58:08;;;;;;;7.28;4.18;;;;;;;;;;5103749;28;20028;-38
2023/10/08 07:00:48;;;;;;;8.20;4.38;;;;;;;;;;5103463;28;20034;-39
2023/10/08 07:03:17;;;;;;;5.45;3.70;;;;;;;;;;5103664;28;20312;-43
2023/10/08 07:05:53;;;;;;;6.30;4.05;;;;;;;;;;5103372;28;20047;-47
2023/10/08 07:08:23;;;;;;;6.20;4.55;;;;;;;;;;5103527;28;20271;-46
2023/10/08 07:10:50;;;;;;;6.00;4.13;;;;;;;;;;5103984;28;20024;-40
2023/10/08 07:13:17;;;;;;;6.03;3.90;;;;;;;;;;5103517;28;20027;-42
2023/10/08 07:15:45;;;;;;;8.52;4.28;;;;;;;;;;5103841;28;20024;-39
2023/10/08 07:18:21;;;;;;;6.88;4.35;;;;;;;;;;5103549;28;20035;-42
2023/10/08 07:20:53;;;;;;;5.55;4.18;;;;;;;;;;5103804;28;20032;-38
2023/10/08 07:23:29;;;;;;;8.15;4.03;;;;;;;;;;5103488;28;20078;-45
2023/10/08 07:25:58;;;;;;;6.28;4.30;;;;;;;;;;5103651;28;20027;-41
2023/10/08 07:28:26;;;;;;;11.50;3.95;;;;;;;;;;5103535;28;20093;-38
2023/10/08 07:30:53;;;;;;;5.93;3.92;;;;;;;;;;5103665;28;20020;-38
2023/10/08 07:33:19;;;;;;;7.57;3.80;;;;;;;;;;5103320;28;20035;-45
2023/10/08 07:36:11;;;;;;;7.20;3.92;;;;;;;;;;5104568;28;20257;-39
2023/10/08 07:38:42;;;;;;;7.03;4.10;;;;;;;;;;5106899;28;20208;-42
2023/10/08 07:41:15;;;;;;;6.88;4.10;;;;;;;;;;5107396;28;20029;-38
2023/10/08 07:43:42;;;;;;;4.22;3.83;;;;;;;;;;5106778;28;20028;-40
2023/10/08 07:46:09;;;;;;;6.30;3.67;;;;;;;;;;5106840;28;20035;-38
2023/10/08 07:48:36;;;;;;;11.45;4.10;;;;;;;;;;5106710;28;20020;-41
2023/10/08 07:51:03;;;;;;;5.25;3.70;;;;;;;;;;5107104;28;20292;-40
2023/10/08 07:53:37;;;;;;;7.05;4.20;;;;;;;;;;5106654;28;20038;-44
2023/10/08 07:56:06;;;;;;;7.63;3.53;;;;;;;;;;5107251;28;20024;-43
2023/10/08 07:58:36;;;;;;;6.00;3.72;;;;;;;;;;5106378;28;20036;-42
2023/10/08 08:01:07;;;;;;;6.38;3.80;;;;;;;;;;5106936;28;20020;-41
2023/10/08 08:03:37;;;;;;;7.70;4.20;;;;;;;;;;5106440;28;20091;-40
2023/10/08 08:06:06;;;;;;;5.50;4.10;;;;;;;;;;5106345;28;20059;-39
2023/10/08 08:08:35;;;;;;;8.40;3.65;;;;;;;;;;5106289;28;20087;-43
2023/10/08 08:11:12;;;;;;;9.50;4.32;;;;;;;;;;5106594;28;20020;-42
2023/10/08 08:13:42;;;;;;;9.15;4.25;;;;;;;;;;5106340;28;20091;-40
2023/10/08 08:16:16;;;;;;;6.95;3.83;;;;;;;;;;5106558;28;20020;-40
2023/10/08 08:18:46;;;;;;;6.95;4.00;;;;;;;;;;5106210;28;20216;-39
2023/10/08 08:21:17;;;;;;;6.13;3.83;;;;;;;;;;5106654;28;20322;-38
2023/10/08 08:23:49;;;;;;;6.22;3.70;;;;;;;;;;5106516;28;20032;-41
2023/10/08 08:26:39;;;;;;;5.85;3.85;;;;;;;;;;5106490;28;20016;-37
2023/10/08 08:29:09;;;;;;;7.47;3.90;;;;;;;;;;5105743;28;20036;-40
2023/10/08 08:31:36;;;;;;;8.30;4.15;;;;;;;;;;5106002;28;20047;-41
2023/10/08 08:34:08;;;;;;;6.90;3.88;;;;;;;;;;5105952;28;20028;-37
2023/10/08 08:36:39;;;;;;;5.57;4.13;;;;;;;;;;5105815;28;20077;-43
2023/10/08 08:39:08;;;;;;;9.93;4.47;;;;;;;;;;5105840;28;20314;-40
2023/10/08 08:41:38;;;;;;;5.03;4.10;;;;;;;;;;5105563;28;20032;-44
2023/10/08 08:44:06;;;;;;;7.03;4.50;;;;;;;;;;5105694;28;20019;-36
2023/10/08 08:46:37;;;;;;;7.30;4.32;;;;;;;;;;5105854;28;20300;-39
2023/10/08 08:49:04;;;;;;;5.35;4.47;;;;;;;;;;5105664;28;20040;-42
2023/10/08 08:51:31;;;;;;;5.63;4.43;;;;;;;;;;5106079;28;20349;-42
2023/10/08 08:54:00;;;;;;;4.97;4.13;;;;;;;;;;5105574;28;20269;-44
2023/10/08 08:56:27;;;;;;;6.47;4.65;;;;;;;;;;5105746;28;20024;-41
2023/10/08 08:58:54;;;;;;;9.85;4.82;;;;;;;;;;5105413;28;20215;-37
2023/10/08 09:01:21;;;;;;;7.80;4.47;;;;;;;;;;5105950;28;20204;-44
2023/10/08 09:03:50;;;;;;;6.47;4.70;;;;;;;;;;5105176;28;20032;-42
2023/10/08 09:06:17;;;;;;;7.78;4.82;;;;;;;;;;5101574;28;21102;-36
2023/10/08 09:08:45;;;;;;;8.05;4.90;;;;;;;;;;5093894;28;20320;-40
2023/10/08 09:11:18;;;;;;;5.88;4.38;;;;;;;;;;5105572;28;20024;-34
2023/10/08 09:13:45;;;;;;;7.75;3.88;;;;;;;;;;5105167;28;20012;-43
2023/10/08 09:16:16;;;;;;;6.57;4.05;;;;;;;;;;5105531;28;20028;-48
2023/10/08 09:18:48;;;;;;;5.95;4.40;;;;;;;;;;5105029;28;20028;-39
2023/10/08 09:21:18;;;;;;;8.40;4.47;;;;;;;;;;5105029;28;20032;-44
2023/10/08 09:23:47;;;;;;;5.88;4.18;;;;;;;;;;5084578;28;20154;-37
2023/10/08 09:26:14;;;;;;;5.40;4.00;;;;;;;;;;5085053;28;20048;-42
2023/10/08 09:28:46;;;;;;;6.20;3.95;;;;;;;;;;5084417;28;20036;-42
2023/10/08 09:31:13;;;;;;;7.80;4.40;;;;;;;;;;5084778;28;20035;-43
2023/10/08 09:33:41;;;;;;;4.88;4.05;;;;;;;;;;5084444;28;20213;-40
2023/10/08 09:36:10;;;;;;;7.18;4.00;;;;;;;;;;5084858;28;20032;-43
2023/10/08 09:38:38;;;;;;;7.78;4.35;;;;;;;;;;5084306;28;20029;-38
2023/10/08 09:41:05;;;;;;;7.22;4.35;;;;;;;;;;5084725;28;20032;-38
2023/10/08 09:43:34;;;;;;;5.90;4.05;;;;;;;;;;5084308;28;20100;-47
2023/10/08 09:46:09;;;;;;;5.85;4.03;;;;;;;;;;5084610;28;20036;-43
2023/10/08 09:48:38;;;;;;;4.75;3.90;;;;;;;;;;5093052;28;20039;-50
2023/10/08 09:51:06;;;;;;;7.82;4.30;;;;;;;;;;5086160;28;20054;-49
2023/10/08 09:53:53;;;;;;;9.82;4.28;;;;;;;;;;5083959;28;20260;-51
2023/10/08 09:56:20;;;;;;;10.52;4.03;;;;;;;;;;5094999;28;20034;-52
2023/10/08 09:58:50;;;;;;;8.88;4.00;;;;;;;;;;5103731;28;20034;-45
2023/10/08 10:01:19;;;;;;;5.65;3.80;;;;;;;;;;5104556;28;20020;-41
2023/10/08 10:03:46;;;;;;;7.78;4.32;;;;;;;;;;5093455;28;20034;-43
2023/10/08 10:06:14;;;;;;;5.53;3.95;;;;;;;;;;5084210;28;20102;-49
2023/10/08 10:08:42;;;;;;;7.90;3.60;;;;;;;;;;5083879;28;20051;-48
2023/10/08 10:11:10;;;;;;;5.38;4.15;;;;;;;;;;5084211;28;20031;-37
2023/10/08 10:13:48;;;;;;;8.18;3.85;;;;;;;;;;5083886;28;20037;-41
2023/10/08 10:16:19;;;;;;;7.72;4.20;;;;;;;;;;5083641;28;20044;-42
2023/10/08 10:18:49;;;;;;;9.95;3.63;;;;;;;;;;5083874;28;20091;-42
2023/10/08 10:21:16;;;;;;;5.75;3.60;;;;;;;;;;5084351;28;20044;-48
2023/10/08 10:23:44;;;;;;;4.70;3.85;;;;;;;;;;5083783;28;20047;-46
2023/10/08 10:26:30;;;;;;;5.80;3.75;;;;;;;;;;5084336;28;20297;-43
2023/10/08 10:29:15;;;;;;;6.97;3.95;;;;;;;;;;5083560;28;20100;-51
2023/10/08 10:31:53;;;;;;;9.68;3.85;;;;;;;;;;5083735;28;20325;-42
2023/10/08 10:34:30;;;;;;;8.48;3.85;;;;;;;;;;5088910;28;20185;-36
2023/10/08 10:37:08;;;;;;;9.52;3.80;;;;;;;;;;5099250;28;20032;-35
2023/10/08 10:39:39;;;;;;;8.57;3.85;;;;;;;;;;5103788;28;20039;-41
2023/10/08 10:42:20;;;;;;;4.40;3.45;;;;;;;;;;5103860;28;20036;-44
2023/10/08 10:44:50;;;;;;;10.93;4.00;;;;;;;;;;5103769;28;20039;-48
2023/10/08 10:49:52;;;;;;;8.43;3.83;;;;;;;;;;5103801;28;20073;-35
2023/10/08 10:52:44;;;;;;;14.02;4.82;;;;;;;;;;5103816;28;20024;-45
2023/10/08 10:55:18;;;;;;;11.75;3.95;;;;;;;;;;5103884;28;20038;-38
2023/10/08 10:58:04;;;;;;;5.75;3.90;;;;;;;;;;5103748;28;20044;-40
2023/10/08 11:03:17;;;;;;;24.48;4.68;;;;;;;;;;5103775;28;20087;-42
2023/10/08 11:05:51;;;;;;;24.35;4.18;;;;;;;;;;5103311;28;20355;-46
2023/10/08 11:08:18;;;;;;;11.25;4.03;;;;;;;;;;5103612;28;20031;-46
2023/10/08 11:10:52;;;;;;;15.60;3.90;;;;;;;;;;5106516;28;20292;-50
2023/10/08 11:13:28;;;;;;;9.95;3.60;;;;;;;;;;5107320;28;20024;-46
2023/10/08 11:15:57;;;;;;;7.70;3.90;;;;;;;;;;5107684;28;20031;-38
2023/10/08 11:18:25;;;;;;;11.35;4.55;;;;;;;;;;5107222;28;20028;-49
2023/10/08 11:21:01;;;;;;;12.70;6.50;;;;;;;;;;5107768;28;20024;-43
2023/10/08 11:23:33;;;;;;;7.35;5.25;;;;;;;;;;5099444;28;20047;-43
2023/10/08 11:26:03;;;;;;;10.48;5.20;;;;;;;;;;5103489;28;20035;-45
2023/10/08 11:28:31;;;;;;;11.55;4.88;;;;;;;;;;5107100;28;20093;-39
2023/10/08 11:31:04;;;;;;;5.55;4.28;;;;;;;;;;5107376;28;20300;-46
2023/10/08 11:33:30;;;;;;;6.95;4.05;;;;;;;;;;5107363;28;20024;-42
2023/10/08 11:36:18;;;;;;;7.50;3.88;;;;;;;;;;5107446;28;20024;-44
2023/10/08 11:38:48;;;;;;;8.30;3.78;;;;;;;;;;5106925;28;20220;-44
2023/10/08 11:41:21;;;;;;;7.40;4.20;;;;;;;;;;5107447;28;20095;-45
2023/10/08 11:43:56;;;;;;;7.32;4.10;;;;;;;;;;5106782;28;20073;-45
2023/10/08 11:46:38;;;;;;;5.80;3.63;;;;;;;;;;5106791;28;20028;-40
2023/10/08 11:49:17;;;;;;;6.00;3.58;;;;;;;;;;5105487;28;20039;-39
2023/10/08 11:51:45;;;;;;;8.80;3.80;;;;;;;;;;5107052;28;20036;-40
2023/10/08 11:54:12;;;;;;;4.95;3.58;;;;;;;;;;5106513;28;20061;-44
2023/10/08 11:56:39;;;;;;;4.30;2.97;;;;;;;;;;5106706;28;20036;-37
2023/10/08 11:59:08;;;;;;;14.93;4.15;;;;;;;;;;5106728;28;20030;-37
2023/10/08 12:01:37;;;;;;;24.65;4.72;;;;;;;;;;5106388;28;20055;-43
2023/10/08 12:04:04;;;;;;;23.60;4.35;;;;;;;;;;5106753;28;20316;-39
2023/10/08 12:06:32;;;;;;;12.70;3.90;;;;;;;;;;5106629;28;20062;-42
2023/10/08 12:08:59;;;;;;;16.55;3.90;;;;;;;;;;5106206;28;20066;-39
2023/10/08 12:11:32;;;;;;;9.60;3.80;;;;;;;;;;5106858;28;20402;-48
2023/10/08 12:14:00;;;;;;;12.13;3.97;;;;;;;;;;5106328;28;20085;-43
2023/10/08 12:16:30;;;;;;;10.80;4.13;;;;;;;;;;5106564;28;20035;-38
2023/10/08 12:19:00;;;;;;;6.40;3.67;;;;;;;;;;5106240;28;20051;-44
2023/10/08 12:21:29;;;;;;;11.43;4.43;;;;;;;;;;5106063;28;20024;-45
2023/10/08 12:23:56;;;;;;;8.23;4.28;;;;;;;;;;5106141;28;20097;-39
2023/10/08 12:26:23;;;;;;;11.10;4.55;;;;;;;;;;5106536;28;20304;-43
2023/10/08 12:28:50;;;;;;;8.98;5.13;;;;;;;;;;5106052;28;20031;-41
2023/10/08 12:31:21;;;;;;;11.93;5.40;;;;;;;;;;5106396;28;20554;-41
2023/10/08 12:33:49;;;;;;;10.07;4.93;;;;;;;;;;5105985;28;20024;-38
2023/10/08 12:36:17;;;;;;;10.30;4.82;;;;;;;;;;5106278;28;20265;-45
2023/10/08 12:38:44;;;;;;;6.45;4.90;;;;;;;;;;5106086;28;20047;-43
2023/10/08 12:41:13;;;;;;;7.10;5.07;;;;;;;;;;5102052;28;20027;-46
2023/10/08 12:43:52;;;;;;;7.13;4.72;;;;;;;;;;5094354;28;20035;-40
2023/10/08 12:46:23;;;;;;;10.85;4.75;;;;;;;;;;5085369;28;20082;-41
2023/10/08 12:48:56;;;;;;;9.63;5.00;;;;;;;;;;5085304;28;20035;-46
2023/10/08 12:51:24;;;;;;;5.57;4.40;;;;;;;;;;5085777;28;20028;-41
2023/10/08 12:54:03;;;;;;;5.90;4.30;;;;;;;;;;5085244;28;20036;-37
2023/10/08 12:56:38;;;;;;;6.10;4.53;;;;;;;;;;5085565;28;20088;-41
2023/10/08 12:59:08;;;;;;;7.00;4.18;;;;;;;;;;5083988;28;20025;-39
2023/10/08 13:01:36;;;;;;;5.38;4.18;;;;;;;;;;5085192;28;20339;-45
2023/10/08 13:04:07;;;;;;;8.43;4.38;;;;;;;;;;5085209;28;20091;-39
2023/10/08 13:06:37;;;;;;;6.22;4.40;;;;;;;;;;5084868;28;20075;-40
2023/10/08 13:09:12;;;;;;;5.63;4.05;;;;;;;;;;5084764;28;20067;-40
2023/10/08 13:11:39;;;;;;;7.82;3.92;;;;;;;;;;5084911;28;20031;-45
2023/10/08 13:14:06;;;;;;;4.03;3.70;;;;;;;;;;5084822;28;20070;-44
2023/10/08 13:16:33;;;;;;;5.65;4.05;;;;;;;;;;5085202;28;20255;-35
2023/10/08 13:19:01;;;;;;;5.93;3.92;;;;;;;;;;5084765;28;20091;-47
2023/10/08 13:21:28;;;;;;;4.78;3.75;;;;;;;;;;5085109;28;20036;-42
2023/10/08 13:24:02;;;;;;;4.97;3.85;;;;;;;;;;5084652;28;20021;-42
2023/10/08 13:26:33;;;;;;;6.13;4.25;;;;;;;;;;5085111;28;20021;-35
2023/10/08 13:28:59;;;;;;;8.63;4.10;;;;;;;;;;5084377;28;20052;-37
2023/10/08 13:31:27;;;;;;;5.72;4.05;;;;;;;;;;5084484;28;20020;-37
2023/10/08 13:33:57;;;;;;;8.90;4.30;;;;;;;;;;5083703;28;20130;-38
2023/10/08 13:36:26;;;;;;;6.78;4.28;;;;;;;;;;5084778;28;20025;-39
2023/10/08 13:38:55;;;;;;;8.00;4.07;;;;;;;;;;5084562;28;20102;-40
2023/10/08 13:41:21;;;;;;;8.80;4.20;;;;;;;;;;5084847;28;20028;-43
2023/10/08 13:43:52;;;;;;;5.53;4.00;;;;;;;;;;5084184;28;20280;-42
2023/10/08 13:46:22;;;;;;;6.30;3.80;;;;;;;;;;5084691;28;20026;-39
2023/10/08 13:48:49;;;;;;;7.95;3.80;;;;;;;;;;5084078;28;20040;-38
2023/10/08 13:51:20;;;;;;;9.02;4.22;;;;;;;;;;5084714;28;20063;-44
2023/10/08 13:53:59;;;;;;;7.72;3.67;;;;;;;;;;5084190;28;20017;-44
2023/10/08 13:56:29;;;;;;;16.65;4.10;;;;;;;;;;5084463;28;20027;-48
2023/10/08 13:59:13;;;;;;;50.50;7.28;;;;;;;;;;5084113;28;20055;-40
2023/10/08 14:01:45;;;;;;;38.45;6.10;;;;;;;;;;5083965;28;20343;-46
2023/10/08 14:04:17;;;;;;;26.17;4.78;;;;;;;;;;5083978;28;20044;-38
2023/10/08 14:06:49;;;;;;;20.53;5.03;;;;;;;;;;5088984;28;20107;-43
2023/10/08 14:09:22;;;;;;;19.98;4.30;;;;;;;;;;5097171;28;20062;-37
2023/10/08 14:11:55;;;;;;;12.82;4.07;;;;;;;;;;5083994;28;20220;-39
2023/10/08 14:14:24;;;;;;;12.75;4.25;;;;;;;;;;5083706;28;20050;-36
2023/10/08 14:16:53;;;;;;;10.80;4.05;;;;;;;;;;5083826;28;20025;-45
2023/10/08 14:19:28;;;;;;;10.02;4.28;;;;;;;;;;5083725;28;20324;-44
2023/10/08 14:22:02;;;;;;;12.50;4.40;;;;;;;;;;5084111;28;20316;-37
2023/10/08 14:24:32;;;;;;;9.45;4.35;;;;;;;;;;5084023;28;20064;-40
2023/10/08 14:27:03;;;;;;;8.63;4.05;;;;;;;;;;5083692;28;20063;-37
2023/10/08 14:29:30;;;;;;;5.13;3.63;;;;;;;;;;5083708;28;20317;-41
2023/10/08 14:31:56;;;;;;;9.55;4.20;;;;;;;;;;5083779;28;20029;-39
2023/10/08 14:42:56;;;;;;;7.10;4.13;;;;;;;;;;5083589;28;20035;-41
2023/10/08 14:45:26;;;;;;;5.00;3.92;;;;;;;;;;5085951;28;20021;-46
2023/10/08 14:47:57;;;;;;;5.57;4.07;;;;;;;;;;5087460;28;20073;-39
2023/10/08 14:50:27;;;;;;;7.50;4.10;;;;;;;;;;5087775;28;20025;-40
2023/10/08 14:52:57;;;;;;;6.55;3.90;;;;;;;;;;5087599;28;20032;-42
2023/10/08 14:55:24;;;;;;;6.22;4.28;;;;;;;;;;5087638;28;20334;-48
2023/10/08 14:57:54;;;;;;;6.10;4.00;;;;;;;;;;5087497;28;20043;-41
2023/10/08 15:00:24;;;;;;;6.28;4.30;;;;;;;;;;5087619;28;20012;-51
2023/10/08 15:02:55;;;;;;;8.48;4.50;;;;;;;;;;5087579;28;20032;-41
2023/10/08 15:05:23;;;;;;;12.02;4.60;;;;;;;;;;5087066;28;20037;-38
2023/10/08 15:07:51;;;;;;;6.28;3.80;;;;;;;;;;5087164;28;20032;-36
2023/10/08 15:10:20;;;;;;;8.00;4.60;;;;;;;;;;5087401;28;20309;-41
2023/10/08 15:12:49;;;;;;;6.50;4.00;;;;;;;;;;5087223;28;20071;-44
2023/10/08 15:15:15;;;;;;;6.10;4.20;;;;;;;;;;5086766;28;20024;-43
2023/10/08 15:17:43;;;;;;;6.35;4.10;;;;;;;;;;5087015;28;20205;-40
2023/10/08 15:20:19;;;;;;;7.70;4.15;;;;;;;;;;5085929;28;20036;-42
2023/10/08 15:22:49;;;;;;;5.30;4.70;;;;;;;;;;5086806;28;20028;-43
2023/10/08 15:25:19;;;;;;;8.88;4.80;;;;;;;;;;5087097;28;20122;-43
2023/10/08 15:27:49;;;;;;;7.47;4.20;;;;;;;;;;5086731;28;20024;-46
2023/10/08 15:30:21;;;;;;;6.78;4.32;;;;;;;;;;5086957;28;20028;-39
2023/10/08 15:32:49;;;;;;;6.45;3.83;;;;;;;;;;5097038;28;20047;-38
2023/10/08 15:35:19;;;;;;;5.22;4.22;;;;;;;;;;5096122;28;20277;-48
2023/10/08 15:37:47;;;;;;;5.70;4.28;;;;;;;;;;5086702;28;20074;-41
2023/10/08 15:40:20;;;;;;;9.68;4.63;;;;;;;;;;5086863;28;20050;-43
2023/10/08 15:42:54;;;;;;;7.97;4.20;;;;;;;;;;5086475;28;20024;-36
2023/10/08 15:45:21;;;;;;;7.95;4.50;;;;;;;;;;5086880;28;20033;-42
2023/10/08 15:47:51;;;;;;;4.40;3.95;;;;;;;;;;5086314;28;20020;-37
2023/10/08 15:50:24;;;;;;;4.82;4.32;;;;;;;;;;5086940;28;20028;-41
2023/10/08 15:52:52;;;;;;;6.53;4.10;;;;;;;;;;5086420;28;20089;-39
2023/10/08 15:55:21;;;;;;;8.77;4.70;;;;;;;;;;5086427;28;20079;-38
2023/10/08 15:57:48;;;;;;;6.03;4.22;;;;;;;;;;5085158;28;20066;-42
2023/10/08 16:00:15;;;;;;;6.07;4.43;;;;;;;;;;5086300;28;20044;-44
2023/10/08 16:02:43;;;;;;;11.38;4.80;;;;;;;;;;5086173;28;20044;-41
2023/10/08 16:05:10;;;;;;;9.27;4.65;;;;;;;;;;5085943;28;20053;-37
2023/10/08 16:07:38;;;;;;;13.57;5.00;;;;;;;;;;5086224;28;20027;-48
2023/10/08 16:10:05;;;;;;;6.30;4.30;;;;;;;;;;5086013;28;20035;-43
2023/10/08 16:12:31;;;;;;;7.93;4.45;;;;;;;;;;5086009;28;20036;-48
2023/10/08 16:14:58;;;;;;;5.35;4.70;;;;;;;;;;5086170;28;20028;-41